Map

Track Data

SID SEASON NUMBER BASIN SUBBASIN NAME ISO_TIME NATURE LAT LON WMO_WIND WMO_PRES WMO_AGENCY TRACK_TYPE DIST2LAND LANDFALL IFLAG USA_AGENCY USA_ATCF_ID USA_LAT USA_LON USA_RECORD USA_STATUS USA_WIND USA_PRES USA_SSHS USA_R34_NE USA_R34_SE USA_R34_SW USA_R34_NW USA_R50_NE USA_R50_SE USA_R50_SW USA_R50_NW USA_R64_NE USA_R64_SE USA_R64_SW USA_R64_NW USA_POCI USA_ROCI USA_RMW USA_EYE TOKYO_LAT TOKYO_LON TOKYO_GRADE TOKYO_WIND TOKYO_PRES TOKYO_R50_DIR TOKYO_R50_LONG TOKYO_R50_SHORT TOKYO_R30_DIR TOKYO_R30_LONG TOKYO_R30_SHORT TOKYO_LAND CMA_LAT CMA_LON CMA_CAT CMA_WIND CMA_PRES HKO_LAT HKO_LON HKO_CAT HKO_WIND HKO_PRES NEWDELHI_LAT NEWDELHI_LON NEWDELHI_GRADE NEWDELHI_WIND NEWDELHI_PRES NEWDELHI_CI NEWDELHI_DP NEWDELHI_POCI REUNION_LAT REUNION_LON REUNION_TYPE REUNION_WIND REUNION_PRES REUNION_TNUM REUNION_CI REUNION_RMW REUNION_R34_NE REUNION_R34_SE REUNION_R34_SW REUNION_R34_NW REUNION_R50_NE REUNION_R50_SE REUNION_R50_SW REUNION_R50_NW REUNION_R64_NE REUNION_R64_SE REUNION_R64_SW REUNION_R64_NW BOM_LAT BOM_LON BOM_TYPE BOM_WIND BOM_PRES BOM_TNUM BOM_CI BOM_RMW BOM_R34_NE BOM_R34_SE BOM_R34_SW BOM_R34_NW BOM_R50_NE BOM_R50_SE BOM_R50_SW BOM_R50_NW BOM_R64_NE BOM_R64_SE BOM_R64_SW BOM_R64_NW BOM_ROCI BOM_POCI BOM_EYE BOM_POS_METHOD BOM_PRES_METHOD NADI_LAT NADI_LON NADI_CAT NADI_WIND NADI_PRES WELLINGTON_LAT WELLINGTON_LON WELLINGTON_WIND WELLINGTON_PRES DS824_LAT DS824_LON DS824_STAGE DS824_WIND DS824_PRES TD9636_LAT TD9636_LON TD9636_STAGE TD9636_WIND TD9636_PRES TD9635_LAT TD9635_LON TD9635_WIND TD9635_PRES TD9635_ROCI NEUMANN_LAT NEUMANN_LON NEUMANN_CLASS NEUMANN_WIND NEUMANN_PRES MLC_LAT MLC_LON MLC_CLASS MLC_WIND MLC_PRES USA_GUST BOM_GUST BOM_GUST_PER REUNION_GUST REUNION_GUST_PER USA_SEAHGT USA_SEARAD_NE USA_SEARAD_SE USA_SEARAD_SW USA_SEARAD_NW STORM_SPEED STORM_DIR
1877042S18059 1877 7 SI MM NOT_NAMED 1877-02-11 06:00:00 NR -18.0000 58.8000 reunion main 261 232 _____O________ -1 -18.0000 58.8000 99 9.90000 5 176
1877042S18059 1877 7 SI MM NOT_NAMED 1877-02-11 09:00:00 NR -18.2705 58.8008 main 232 212 _____P________ -1 -18.2705 58.8008 99 5 177
1877042S18059 1877 7 SI MM NOT_NAMED 1877-02-11 12:00:00 NR -18.5391 58.8015 main 212 185 _____P________ -1 -18.5391 58.8015 99 5 177
1877042S18059 1877 7 SI MM NOT_NAMED 1877-02-11 15:00:00 NR -18.8037 58.8021 main 185 168 _____P________ -1 -18.8037 58.8021 99 5 0
1877042S18059 1877 7 SI MM NOT_NAMED 1877-02-11 18:00:00 NR -19.0625 58.8024 main 160 145 _____P________ -1 -19.0625 58.8024 99 5 0
1877042S18059 1877 7 SI MM NOT_NAMED 1877-02-11 21:00:00 NR -19.3135 58.8025 main 145 133 _____P________ -1 -19.3135 58.8025 99 5 182
1877042S18059 1877 7 SI MM NOT_NAMED 1877-02-12 00:00:00 NR -19.5547 58.8021 main 127 118 _____P________ -1 -19.5547 58.8021 99 5 183
1877042S18059 1877 7 SI MM NOT_NAMED 1877-02-12 03:00:00 NR -19.7842 58.8013 main 118 109 _____P________ -1 -19.7842 58.8013 99 4 183
1877042S18059 1877 7 SI MM NOT_NAMED 1877-02-12 06:00:00 NR -20.0000 58.8000 reunion main 109 104 _____O________ -1 -20.0000 58.8000 99 9.90000 4 181
1877042S18059 1877 7 SI MM NOT_NAMED 1877-02-12 09:00:00 NR -20.2010 58.7981 main 104 104 _____P________ -1 -20.2010 58.7981 99 4 183
1877042S18059 1877 7 SI MM NOT_NAMED 1877-02-12 12:00:00 NR -20.3890 58.7960 main 104 104 _____P________ -1 -20.3890 58.7960 99 4 184
1877042S18059 1877 7 SI MM NOT_NAMED 1877-02-12 15:00:00 NR -20.5669 58.7940 main 109 109 _____P________ -1 -20.5669 58.7940 99 4 184
1877042S18059 1877 7 SI MM NOT_NAMED 1877-02-12 18:00:00 NR -20.7374 58.7926 main 113 113 _____P________ -1 -20.7374 58.7926 99 3 0
1877042S18059 1877 7 SI MM NOT_NAMED 1877-02-12 21:00:00 NR -20.9033 58.7921 main 122 122 _____P________ -1 -20.9033 58.7921 99 3 0
1877042S18059 1877 7 SI MM NOT_NAMED 1877-02-13 00:00:00 NR -21.0672 58.7929 main 132 132 _____P________ -1 -21.0672 58.7929 99 3 179
1877042S18059 1877 7 SI MM NOT_NAMED 1877-02-13 03:00:00 NR -21.2318 58.7954 main 138 138 _____P________ -1 -21.2318 58.7954 99 3 177
1877042S18059 1877 7 SI MM NOT_NAMED 1877-02-13 06:00:00 NR -21.4000 58.8000 reunion main 152 152 _____O________ -1 -21.4000 58.8000 99 9.90000 3 177
1877042S18059 1877 7 SI MM NOT_NAMED 1877-02-13 09:00:00 NR -21.5695 58.8078 main 167 167 _____P________ -1 -21.5695 58.8078 99 3 176
1877042S18059 1877 7 SI MM NOT_NAMED 1877-02-13 12:00:00 NR -21.7394 58.8178 main 176 176 _____P________ -1 -21.7394 58.8178 99 3 0
1877042S18059 1877 7 SI MM NOT_NAMED 1877-02-13 15:00:00 NR -21.9122 58.8295 main 193 193 _____P________ -1 -21.9122 58.8295 99 4 176
1877042S18059 1877 7 SI MM NOT_NAMED 1877-02-13 18:00:00 NR -22.0901 58.8425 main 212 212 _____P________ -1 -22.0901 58.8425 99 4 0
1877042S18059 1877 7 SI MM NOT_NAMED 1877-02-13 21:00:00 NR -22.2754 58.8565 main 236 236 _____P________ -1 -22.2754 58.8565 99 4 176
1877042S18059 1877 7 SI MM NOT_NAMED 1877-02-14 00:00:00 NR -22.4707 58.8710 main 255 255 _____P________ -1 -22.4707 58.8710 99 4 176
1877042S18059 1877 7 SI MM NOT_NAMED 1877-02-14 03:00:00 NR -22.6781 58.8856 main 275 275 _____P________ -1 -22.6781 58.8856 99 4 177
1877042S18059 1877 7 SI MM NOT_NAMED 1877-02-14 06:00:00 NR -22.9000 58.9000 reunion main 295 295 _____O________ -1 -22.9000 58.9000 99 9.90000 4 176
1877042S18059 1877 7 SI MM NOT_NAMED 1877-02-14 09:00:00 NR -23.1195 58.9034 main 315 315 _____P________ -1 -23.1195 58.9034 99 5 179
1877042S18059 1877 7 SI MM NOT_NAMED 1877-02-14 12:00:00 NR -23.3510 58.9057 main 347 347 _____P________ -1 -23.3510 58.9057 99 5 0
1877042S18059 1877 7 SI MM NOT_NAMED 1877-02-14 15:00:00 NR -23.5964 58.9086 main 367 367 _____P________ -1 -23.5964 58.9086 99 5 179
1877042S18059 1877 7 SI MM NOT_NAMED 1877-02-14 18:00:00 NR -23.8577 58.9141 main 399 399 _____P________ -1 -23.8577 58.9141 99 5 0
1877042S18059 1877 7 SI MM NOT_NAMED 1877-02-14 21:00:00 NR -24.1367 58.9241 main 420 420 _____P________ -1 -24.1367 58.9241 99 6 0
1877042S18059 1877 7 SI MM NOT_NAMED 1877-02-15 00:00:00 NR -24.4354 58.9404 main 453 453 _____P________ -1 -24.4354 58.9404 99 6 176
1877042S18059 1877 7 SI MM NOT_NAMED 1877-02-15 03:00:00 NR -24.7559 58.9651 main 498 498 _____P________ -1 -24.7559 58.9651 99 7 175
1877042S18059 1877 7 SI MM NOT_NAMED 1877-02-15 06:00:00 NR -25.1000 59.0000 reunion main 531 531 _____O________ -1 -25.1000 59.0000 99 9.90000 7 174
1877042S18059 1877 7 SI MM NOT_NAMED 1877-02-15 09:00:00 NR -25.4521 59.0373 main 571 571 _____P________ -1 -25.4521 59.0373 99 7 174
1877042S18059 1877 7 SI MM NOT_NAMED 1877-02-15 12:00:00 NR -25.8273 59.0834 main 604 604 _____P________ -1 -25.8273 59.0834 99 8 174
1877042S18059 1877 7 SI MM NOT_NAMED 1877-02-15 15:00:00 NR -26.2246 59.1393 main 642 642 _____P________ -1 -26.2246 59.1393 99 8 172
1877042S18059 1877 7 SI MM NOT_NAMED 1877-02-15 18:00:00 NR -26.6427 59.2059 main 685 685 _____P________ -1 -26.6427 59.2059 99 9 171
1877042S18059 1877 7 SI MM NOT_NAMED 1877-02-15 21:00:00 NR -27.0804 59.2842 main 738 738 _____P________ -1 -27.0804 59.2842 99 9 170
1877042S18059 1877 7 SI MM NOT_NAMED 1877-02-16 00:00:00 NR -27.5366 59.3752 main 782 782 _____P________ -1 -27.5366 59.3752 99 10 170
1877042S18059 1877 7 SI MM NOT_NAMED 1877-02-16 03:00:00 NR -28.0102 59.4801 main 835 835 _____P________ -1 -28.0102 59.4801 99 10 168
1877042S18059 1877 7 SI MM NOT_NAMED 1877-02-16 06:00:00 NR -28.5000 59.6000 reunion main 889 889 _____O________ -1 -28.5000 59.6000 99 9.90000 11 167
1877042S18059 1877 7 SI MM NOT_NAMED 1877-02-16 09:00:00 NR -29.0474 59.7464 main 943 943 _____P________ -1 -29.0474 59.7464 99 12 166
1877042S18059 1877 7 SI MM NOT_NAMED 1877-02-16 12:00:00 NR -29.6203 59.9113 main 1012 1012 _____P________ -1 -29.6203 59.9113 99 12 166
1877042S18059 1877 7 SI MM NOT_NAMED 1877-02-16 15:00:00 NR -30.2044 60.0898 main 1080 1080 _____P________ -1 -30.2044 60.0898 99 12 165
1877042S18059 1877 7 SI MM NOT_NAMED 1877-02-16 18:00:00 NR -30.7857 60.2768 main 1149 1149 _____P________ -1 -30.7857 60.2768 99 12 164
1877042S18059 1877 7 SI MM NOT_NAMED 1877-02-16 21:00:00 NR -31.3500 60.4671 main 1218 1218 _____P________ -1 -31.3500 60.4671 99 11 164
1877042S18059 1877 7 SI MM NOT_NAMED 1877-02-17 00:00:00 NR -31.8832 60.6549 main 1276 1276 _____P________ -1 -31.8832 60.6549 99 11 163
1877042S18059 1877 7 SI MM NOT_NAMED 1877-02-17 03:00:00 NR -32.3712 60.8346 main 1331 1331 _____P________ -1 -32.3712 60.8346 99 10 162
1877042S18059 1877 7 SI MM NOT_NAMED 1877-02-17 06:00:00 NR -32.8000 61.0000 reunion main 1379 1379 _____O________ -1 -32.8000 61.0000 99 9.90000 8 162
1877042S18059 1877 7 SI MM NOT_NAMED 1877-02-17 09:00:00 NR -33.1595 61.1464 main 1424 1424 _____P________ -1 -33.1595 61.1464 99 7 161
1877042S18059 1877 7 SI MM NOT_NAMED 1877-02-17 12:00:00 NR -33.4551 61.2745 main 1462 1462 _____P________ -1 -33.4551 61.2745 99 6 159
1877042S18059 1877 7 SI MM NOT_NAMED 1877-02-17 15:00:00 NR -33.6960 61.3868 main 1486 1486 _____P________ -1 -33.6960 61.3868 99 5 158
1877042S18059 1877 7 SI MM NOT_NAMED 1877-02-17 18:00:00 NR -33.8914 61.4857 main 1510 1510 _____P________ -1 -33.8914 61.4857 99 4 157
1877042S18059 1877 7 SI MM NOT_NAMED 1877-02-17 21:00:00 NR -34.0504 61.5738 main 1534 1534 _____P________ -1 -34.0504 61.5738 99 3 155
1877042S18059 1877 7 SI MM NOT_NAMED 1877-02-18 00:00:00 NR -34.1821 61.6537 main 1548 1548 _____P________ -1 -34.1821 61.6537 99 3 153
1877042S18059 1877 7 SI MM NOT_NAMED 1877-02-18 03:00:00 NR -34.2956 61.7281 main 1558 1558 _____P________ -1 -34.2956 61.7281 99 2 152
1877042S18059 1877 7 SI MM NOT_NAMED 1877-02-18 06:00:00 NR -34.4000 61.8000 reunion main 1572 _____O________ -1 -34.4000 61.8000 99 9.90000 2 152

About IBTrACS Database

This database is a web-friendly format of International Best Track Archive for Climate Stewardship (IBTrACS), a global best track data archive curated by NOAA dating back to 1842.

Updated: 2021-10-21